CYQX

Gander International Airport

Gander, Canada
TAF CYQX 251138Z 2512/2612 30010G20KT P6SM FEW030 SCT060 TEMPO 2512/2514 BKN050 FM251400 33015KT P6SM FEW050 BECMG 2518/2520 32006KT BECMG 2522/2524 16005KT FM260200 22012G22KT P6SM SKC FM261000 22012G22KT P6SM OVC080 RMK NXT FCST BY 251800Z
Issued Valid From Valid To
Sep-25 @ 11:38 UTC
(4 hours ago)
Sep-25 @ 12:00 UTC
(4 hours ago)
Sep-26 @ 12:00 UTC
(in 20 hours)
Expired Click to View Sep-25 @ 12:00 to Sep-25 @ 14:00
TAF CYQX 251138Z 2512/2612 30010G20KT P6SM FEW030 SCT060
Wind Visibility Clouds
300° at 10 knots
 Gusting to 20 knots
Greater than 6 miles
  • Few at 3,000' AGL
  • Scattered at 6,000' AGL
Expired Click to View Sep-25 @ 12:00 to Sep-25 @ 14:00
TEMPO 2512/2514 BKN050
Clouds
  • Broken at 5,000' AGL
From Sep-25 @ 14:00 to Sep-25 @ 18:00
FM251400 33015KT P6SM FEW050
Wind Visibility Clouds
330° at 15 knots Greater than 6 miles
  • Few at 5,000' AGL
Becoming Sep-25 @ 18:00 to Sep-25 @ 22:00
BECMG 2518/2520 32006KT
Wind Visibility Clouds
320° at 6 knots Greater than 6 miles
  • Few at 5,000' AGL
Becoming Sep-25 @ 22:00 to Sep-26 @ 02:00
BECMG 2522/2524 16005KT
Wind Visibility Clouds
160° at 5 knots Greater than 6 miles
  • Few at 5,000' AGL
From Sep-26 @ 02:00 to Sep-26 @ 10:00
FM260200 22012G22KT P6SM SKC
Wind Visibility Clouds
220° at 12 knots
 Gusting to 22 knots
Greater than 6 miles
  • Clear skies
From Sep-26 @ 10:00 to Sep-26 @ 12:00
FM261000 22012G22KT P6SM OVC080 RMK NXT FCST BY 251800Z
Wind Visibility Clouds
220° at 12 knots
 Gusting to 22 knots
Greater than 6 miles
  • Overcast at 8,000' AGL
TAF CYQX 251138Z 2512/2612 30010G20KT P6SM FEW030 SCT060 TEMPO 2512/2514 BKN050 FM251400 33015KT P6SM FEW050 BECMG 2518/2520 32006KT BECMG 2522/2524 16005KT FM260200 22012G22KT P6SM SKC FM261000 22012G22KT P6SM OVC080 RMK NXT FCST BY 251800Z
Issued Sep-25 @ 11:38 UTC
(4 hours ago)
Valid From Sep-25 @ 12:00 UTC
(4 hours ago)
Valid To Sep-26 @ 12:00 UTC
(in 20 hours)
Sep-25 @ 12:00 - Sep-25 @ 14:00
Wind Visibility
300° at 10 knots
 Gusting to 20 knots
Greater than 6 miles
Clouds
  • Few at 3,000' AGL
  • Scattered at 6,000' AGL
Sep-25 @ 12:00 - Sep-25 @ 14:00
Clouds
  • Broken at 5,000' AGL
From Sep-25 @ 14:00 - Sep-25 @ 18:00
Wind Visibility
330° at 15 knots Greater than 6 miles
Clouds
  • Few at 5,000' AGL
Becoming Sep-25 @ 18:00 - Sep-25 @ 22:00
Wind Visibility
320° at 6 knots Greater than 6 miles
Clouds
  • Few at 5,000' AGL
Becoming Sep-25 @ 22:00 - Sep-26 @ 02:00
Wind Visibility
160° at 5 knots Greater than 6 miles
Clouds
  • Few at 5,000' AGL
From Sep-26 @ 02:00 - Sep-26 @ 10:00
Wind Visibility
220° at 12 knots
 Gusting to 22 knots
Greater than 6 miles
Clouds
  • Clear skies
From Sep-26 @ 10:00 - Sep-26 @ 12:00
Wind Visibility
220° at 12 knots
 Gusting to 22 knots
Greater than 6 miles
Clouds
  • Overcast at 8,000' AGL